createdAt,value
2019-03-16T00:00:15.991Z,100937.38
2019-03-16T00:02:43.039Z,100944.75
2019-03-16T00:05:10.121Z,100941.19
2019-03-16T00:07:37.179Z,100942.04
2019-03-16T00:10:04.270Z,100940.81
2019-03-16T00:12:31.337Z,100944.53
2019-03-16T00:14:58.387Z,100951.91
2019-03-16T00:17:25.480Z,100955.67
2019-03-16T00:19:52.558Z,100956.09
2019-03-16T00:22:19.652Z,100960.75
2019-03-16T00:24:46.841Z,100962.44
2019-03-16T00:27:13.970Z,100956.63
2019-03-16T00:29:41.011Z,100964.03
2019-03-16T00:32:13.332Z,100964.32
2019-03-16T00:34:37.028Z,100964.60
2019-03-16T00:37:04.081Z,100963.20
2019-03-16T00:39:31.127Z,100966.16
2019-03-16T00:41:58.211Z,100971.41
2019-03-16T00:44:25.348Z,100963.24
2019-03-16T00:46:52.423Z,100959.21
2019-03-16T00:49:19.519Z,100955.31
2019-03-16T00:51:46.559Z,100967.19
2019-03-16T00:54:13.653Z,100958.23
2019-03-16T00:56:40.731Z,100943.60
2019-03-16T00:59:07.786Z,100963.30
2019-03-16T01:01:34.820Z,100961.52
2019-03-16T01:04:01.897Z,100967.75
2019-03-16T01:06:28.990Z,100958.41
2019-03-16T01:08:56.020Z,100963.16
2019-03-16T01:11:23.081Z,100960.67
2019-03-16T01:13:50.130Z,100961.38
2019-03-16T01:16:17.256Z,100964.73
2019-03-16T01:18:44.304Z,100966.30
2019-03-16T01:21:11.365Z,100956.50
2019-03-16T01:23:38.437Z,100968.68
2019-03-16T01:26:05.485Z,100975.61
2019-03-16T01:28:32.522Z,100977.15
2019-03-16T01:30:59.606Z,100977.52
2019-03-16T01:33:26.656Z,100971.91
2019-03-16T01:35:53.684Z,100968.29
2019-03-16T01:38:20.756Z,100969.97
2019-03-16T01:40:47.790Z,100967.34
2019-03-16T01:43:15.033Z,100966.31
2019-03-16T01:45:42.168Z,100967.84
2019-03-16T01:48:09.231Z,100968.95
2019-03-16T01:50:36.273Z,100968.48
2019-03-16T01:53:03.345Z,100967.17
2019-03-16T01:55:30.528Z,100971.05
2019-03-16T01:57:57.578Z,100970.11
2019-03-16T02:00:24.646Z,100967.80
2019-03-16T02:02:55.429Z,100971.42
2019-03-16T02:05:20.744Z,100967.59
2019-03-16T02:07:48.317Z,100956.63
2019-03-16T02:10:15.375Z,100953.59
2019-03-16T02:12:42.420Z,100963.13
2019-03-16T02:15:09.626Z,100955.27
2019-03-16T02:17:36.694Z,100953.59
2019-03-16T02:20:04.348Z,100942.94
2019-03-16T02:22:31.417Z,100948.98
2019-03-16T02:24:58.561Z,100945.83
2019-03-16T02:27:25.598Z,100944.00
2019-03-16T02:29:52.671Z,100942.22
2019-03-16T02:32:19.723Z,100938.23
2019-03-16T02:34:46.768Z,100932.47
2019-03-16T02:37:13.858Z,100937.66
2019-03-16T02:39:40.899Z,100924.92
2019-03-16T02:42:07.942Z,100919.58
2019-03-16T02:44:35.014Z,100924.34
2019-03-16T02:47:02.063Z,100923.83
2019-03-16T02:49:29.157Z,100925.92
2019-03-16T02:51:56.228Z,100920.91
2019-03-16T02:54:23.266Z,100916.88
2019-03-16T02:56:50.347Z,100923.38
2019-03-16T02:59:17.417Z,100921.44
2019-03-16T03:01:44.457Z,100925.79
2019-03-16T03:04:11.495Z,100928.36
2019-03-16T03:06:38.573Z,100917.45
2019-03-16T03:09:07.487Z,100904.77
2019-03-16T03:11:34.550Z,100903.94
2019-03-16T03:14:01.632Z,100894.23
2019-03-16T03:16:28.659Z,100893.34
2019-03-16T03:18:55.695Z,100902.09
2019-03-16T03:21:22.776Z,100906.45
2019-03-16T03:23:49.853Z,100913.47
2019-03-16T03:26:16.883Z,100911.69
2019-03-16T03:28:43.954Z,100913.05
2019-03-16T03:31:11.009Z,100910.44
2019-03-16T03:33:59.232Z,100905.56
2019-03-16T03:36:07.243Z,100911.69
2019-03-16T03:38:34.296Z,100903.83
2019-03-16T03:41:02.088Z,100897.80
2019-03-16T03:43:29.456Z,100895.97
2019-03-16T03:45:56.548Z,100901.20
2019-03-16T03:48:23.584Z,100900.38
2019-03-16T03:50:50.669Z,100908.23
2019-03-16T03:53:17.736Z,100903.46
2019-03-16T03:55:45.060Z,100911.33
2019-03-16T03:58:12.161Z,100904.77
2019-03-16T04:00:39.199Z,100909.55
2019-03-16T04:03:06.529Z,100908.23
2019-03-16T04:05:33.594Z,100907.76
2019-03-16T04:08:00.631Z,100908.18
2019-03-16T04:10:27.947Z,100912.58
2019-03-16T04:12:55.036Z,100908.02
2019-03-16T04:15:22.073Z,100907.97
2019-03-16T04:17:49.116Z,100905.34
2019-03-16T04:20:16.171Z,100906.14
2019-03-16T04:22:43.229Z,100895.97
2019-03-16T04:25:10.262Z,100903.36
2019-03-16T04:27:37.355Z,100900.63
2019-03-16T04:30:04.810Z,100901.05
2019-03-16T04:32:31.859Z,100902.25
2019-03-16T04:34:59.842Z,100901.73
2019-03-16T04:37:26.903Z,100907.49
2019-03-16T04:39:53.946Z,100896.85
2019-03-16T04:42:21.009Z,100895.96
2019-03-16T04:44:48.156Z,100903.34
2019-03-16T04:47:15.287Z,100901.45
2019-03-16T04:49:45.373Z,100900.15
2019-03-16T04:52:12.479Z,100887.47
2019-03-16T04:54:39.528Z,100883.91
2019-03-16T04:57:06.586Z,100889.09
2019-03-16T04:59:33.753Z,100893.91
2019-03-16T05:02:00.801Z,100892.97
2019-03-16T05:04:27.847Z,100882.82
2019-03-16T05:06:55.141Z,100881.04
2019-03-16T05:09:22.185Z,100890.16
2019-03-16T05:11:49.225Z,100884.50
2019-03-16T05:14:16.308Z,100883.50
2019-03-16T05:16:43.337Z,100879.93
2019-03-16T05:19:10.374Z,100879.88
2019-03-16T05:21:37.462Z,100884.70
2019-03-16T05:24:04.504Z,100888.57
2019-03-16T05:26:31.540Z,100879.30
2019-03-16T05:28:58.621Z,100880.55
2019-03-16T05:31:25.665Z,100877.83
2019-03-16T05:33:52.704Z,100878.60
2019-03-16T05:36:19.767Z,100877.23
2019-03-16T05:38:46.851Z,100868.02
2019-03-16T05:41:13.887Z,100865.34
2019-03-16T05:43:40.923Z,100860.95
2019-03-16T05:46:08.029Z,100858.69
2019-03-16T05:48:35.061Z,100870.95
2019-03-16T05:51:02.109Z,100859.53
2019-03-16T05:53:29.218Z,100855.08
2019-03-16T05:55:56.277Z,100878.22
2019-03-16T05:58:23.332Z,100872.50
2019-03-16T06:00:50.420Z,100868.11
2019-03-16T06:03:17.498Z,100860.25
2019-03-16T06:05:44.532Z,100868.94
2019-03-16T06:08:11.570Z,100871.09
2019-03-16T06:10:39.054Z,100871.09
2019-03-16T06:13:06.118Z,100863.59
2019-03-16T06:15:33.162Z,100869.19
2019-03-16T06:18:00.278Z,100869.25
2019-03-16T06:20:27.318Z,100855.69
2019-03-16T06:22:54.364Z,100863.59
2019-03-16T06:25:21.440Z,100860.56
2019-03-16T06:27:48.504Z,100854.85
2019-03-16T06:30:15.543Z,100855.74
2019-03-16T06:32:42.628Z,100850.51
2019-03-16T06:35:23.349Z,100851.40
2019-03-16T06:37:38.623Z,100845.33
2019-03-16T06:40:06.024Z,100845.38
2019-03-16T06:42:33.099Z,100837.70
2019-03-16T06:45:00.364Z,100832.67
2019-03-16T06:47:27.574Z,100832.58
2019-03-16T06:49:54.683Z,100832.90
2019-03-16T06:52:21.830Z,100828.17
2019-03-16T06:54:48.888Z,100818.99
2019-03-16T06:57:16.035Z,100818.09
2019-03-16T06:59:43.133Z,100819.05
2019-03-16T07:02:10.187Z,100817.05
2019-03-16T07:04:37.261Z,100815.38
2019-03-16T07:07:05.227Z,100813.59
2019-03-16T07:09:32.277Z,100804.48
2019-03-16T07:11:59.337Z,100810.26
2019-03-16T07:14:26.419Z,100807.52
2019-03-16T07:17:02.098Z,100803.45
2019-03-16T07:19:22.512Z,100792.56
2019-03-16T07:21:49.608Z,100790.19
2019-03-16T07:24:16.700Z,100786.14
2019-03-16T07:26:43.826Z,100764.85
2019-03-16T07:29:10.925Z,100796.58
2019-03-16T07:31:38.004Z,100780.38
2019-03-16T07:34:05.046Z,100775.28
2019-03-16T07:36:32.176Z,100760.66
2019-03-16T07:38:59.230Z,100748.52
2019-03-16T07:41:26.265Z,100771.02
2019-03-16T07:43:53.385Z,100775.70
2019-03-16T07:46:20.497Z,100783.59
2019-03-16T07:48:47.567Z,100782.20
2019-03-16T07:51:14.684Z,100777.09
2019-03-16T07:53:41.761Z,100779.33
2019-03-16T07:56:08.840Z,100784.23
2019-03-16T07:58:35.926Z,100783.84
2019-03-16T08:01:03.607Z,100789.21
2019-03-16T08:03:30.770Z,100790.98
2019-03-16T08:05:57.897Z,100783.56
2019-03-16T08:08:24.966Z,100784.38
2019-03-16T08:10:52.037Z,100789.56
2019-03-16T08:13:19.164Z,100794.33
2019-03-16T08:15:46.203Z,100779.68
2019-03-16T08:18:13.253Z,100776.16
2019-03-16T08:20:40.572Z,100780.14
2019-03-16T08:23:07.616Z,100784.41
2019-03-16T08:25:34.682Z,100799.16
2019-03-16T08:28:01.790Z,100804.74
2019-03-16T08:30:28.866Z,100811.62
2019-03-16T08:32:57.443Z,100806.83
2019-03-16T08:35:24.586Z,100813.80
2019-03-16T08:37:51.635Z,100807.61
2019-03-16T08:40:18.694Z,100806.83
2019-03-16T08:42:45.776Z,100788.07
2019-03-16T08:45:12.820Z,100791.98
2019-03-16T08:47:39.910Z,100779.41
2019-03-16T08:50:07.035Z,100780.08
2019-03-16T08:52:34.073Z,100765.52
2019-03-16T08:55:01.112Z,100765.00
2019-03-16T08:57:28.217Z,100769.44
2019-03-16T08:59:55.278Z,100745.30
2019-03-16T09:02:22.769Z,100733.70
2019-03-16T09:04:49.855Z,100736.30
2019-03-16T09:07:16.925Z,100731.56
2019-03-16T09:09:43.988Z,100746.99
2019-03-16T09:12:11.199Z,100737.90
2019-03-16T09:14:38.250Z,100742.28
2019-03-16T09:17:05.310Z,100756.48
2019-03-16T09:19:32.412Z,100754.61
2019-03-16T09:21:59.461Z,100746.66
2019-03-16T09:24:26.564Z,100738.02
2019-03-16T09:26:53.692Z,100741.05
2019-03-16T09:29:20.781Z,100739.27
2019-03-16T09:31:47.967Z,100738.91
2019-03-16T09:34:15.089Z,100734.16
2019-03-16T09:36:42.282Z,100740.66
2019-03-16T09:39:09.367Z,100741.54
2019-03-16T09:41:36.520Z,100742.42
2019-03-16T09:44:04.025Z,100744.57
2019-03-16T09:46:31.259Z,100741.91
2019-03-16T09:48:58.330Z,100739.27
2019-03-16T09:51:25.409Z,100729.20
2019-03-16T09:57:24.039Z,100727.09
2019-03-16T09:59:51.098Z,100733.98
2019-03-16T10:02:18.496Z,100735.45
2019-03-16T10:04:45.596Z,100730.92
2019-03-16T10:07:12.644Z,100736.58
2019-03-16T10:09:39.747Z,100728.69
2019-03-16T10:12:06.781Z,100723.48
2019-03-16T10:14:37.038Z,100726.97
2019-03-16T10:17:03.027Z,100711.69
2019-03-16T10:19:30.108Z,100712.38
2019-03-16T10:21:57.164Z,100712.47
2019-03-16T10:24:24.240Z,100712.92
2019-03-16T10:26:51.292Z,100714.47
2019-03-16T10:29:18.368Z,100725.36
2019-03-16T10:31:45.473Z,100716.99
2019-03-16T10:34:12.594Z,100712.77
2019-03-16T10:36:39.715Z,100698.41
2019-03-16T10:39:06.800Z,100699.75
2019-03-16T10:41:33.922Z,100702.66
2019-03-16T10:44:00.975Z,100703.43
2019-03-16T10:46:28.096Z,100697.25
2019-03-16T10:48:55.419Z,100703.86
2019-03-16T10:51:22.483Z,100703.84
2019-03-16T10:53:49.523Z,100711.13
2019-03-16T10:56:16.768Z,100704.70
2019-03-16T10:58:55.749Z,100713.06
2019-03-16T11:01:12.808Z,100723.66
2019-03-16T11:03:40.078Z,100708.44
2019-03-16T11:06:07.326Z,100701.39
2019-03-16T11:08:34.462Z,100703.19
2019-03-16T11:11:01.530Z,100706.41
2019-03-16T11:13:28.594Z,100704.47
2019-03-16T11:15:55.819Z,100698.71
2019-03-16T11:18:22.895Z,100698.66
2019-03-16T11:20:49.976Z,100692.86
2019-03-16T11:23:17.047Z,100698.11
2019-03-16T11:25:44.106Z,100706.92
2019-03-16T11:28:11.174Z,100697.57
2019-03-16T11:30:38.270Z,100687.38
2019-03-16T11:33:05.324Z,100698.30
2019-03-16T11:35:32.380Z,100706.50
2019-03-16T11:37:59.442Z,100686.87
2019-03-16T11:40:26.697Z,100690.84
2019-03-16T11:42:53.781Z,100686.06
2019-03-16T11:45:20.869Z,100683.67
2019-03-16T11:47:47.959Z,100684.99
2019-03-16T11:50:15.013Z,100688.52
2019-03-16T11:52:42.123Z,100690.93
2019-03-16T11:55:09.296Z,100677.43
2019-03-16T11:57:36.343Z,100675.34
2019-03-16T12:00:04.313Z,100675.80
2019-03-16T12:02:31.548Z,100668.84
2019-03-16T12:04:58.598Z,100677.09
2019-03-16T12:07:25.630Z,100670.43
2019-03-16T12:09:52.989Z,100680.71
2019-03-16T12:12:20.105Z,100670.87
2019-03-16T12:14:47.170Z,100666.67
2019-03-16T12:17:14.279Z,100655.02
2019-03-16T12:19:41.319Z,100660.62
2019-03-16T12:22:08.407Z,100644.93
2019-03-16T12:24:35.529Z,100646.25
2019-03-16T12:27:02.596Z,100652.58
2019-03-16T12:29:34.240Z,100640.20
2019-03-16T12:31:58.625Z,100641.87
2019-03-16T12:34:25.965Z,100636.12
2019-03-16T12:36:53.000Z,100632.57
2019-03-16T12:39:20.122Z,100628.04
2019-03-16T12:41:47.187Z,100620.03
2019-03-16T12:44:14.248Z,100634.05
2019-03-16T12:46:41.358Z,100628.95
2019-03-16T12:49:08.484Z,100622.89
2019-03-16T12:51:35.565Z,100625.00
2019-03-16T12:54:02.636Z,100617.07
2019-03-16T12:56:29.714Z,100620.52
2019-03-16T12:58:56.763Z,100619.58
2019-03-16T13:01:23.962Z,100609.02
2019-03-16T13:03:51.021Z,100615.15
2019-03-16T13:06:19.247Z,100610.33
2019-03-16T13:08:46.369Z,100609.38
2019-03-16T13:11:13.458Z,100599.89
2019-03-16T13:13:40.528Z,100588.35
2019-03-16T13:16:07.669Z,100608.66
2019-03-16T13:18:34.714Z,100614.89
2019-03-16T13:21:01.792Z,100603.97
2019-03-16T13:23:28.887Z,100603.11
2019-03-16T13:25:55.917Z,100609.44
2019-03-16T13:28:22.984Z,100593.14
2019-03-16T13:30:50.135Z,100594.46
2019-03-16T13:33:17.269Z,100598.89
2019-03-16T13:35:44.357Z,100602.87
2019-03-16T13:38:11.453Z,100611.69
2019-03-16T13:40:38.493Z,100605.08
2019-03-16T13:43:05.571Z,100597.28
2019-03-16T13:45:32.674Z,100600.43
2019-03-16T13:48:00.204Z,100599.30
2019-03-16T13:50:27.250Z,100605.38
2019-03-16T13:52:54.503Z,100600.98
2019-03-16T13:55:21.603Z,100594.94
2019-03-16T13:57:48.670Z,100578.75
2019-03-16T14:00:16.120Z,100578.63
2019-03-16T14:02:43.264Z,100589.50
2019-03-16T14:05:10.358Z,100581.69
2019-03-16T14:07:37.735Z,100589.95
2019-03-16T14:10:06.603Z,100584.16
2019-03-16T14:12:33.692Z,100576.28
2019-03-16T14:15:00.780Z,100581.95
2019-03-16T14:17:28.191Z,100562.33
2019-03-16T14:19:55.242Z,100562.77
2019-03-16T14:22:22.331Z,100570.19
2019-03-16T14:24:49.555Z,100577.06
2019-03-16T14:27:16.893Z,100562.98
2019-03-16T14:29:44.284Z,100558.94
2019-03-16T14:32:11.580Z,100566.31
2019-03-16T14:34:38.632Z,100551.39
2019-03-16T14:37:05.689Z,100554.94
2019-03-16T14:39:32.830Z,100561.44
2019-03-16T14:42:00.030Z,100554.53
2019-03-16T14:44:27.111Z,100552.39
2019-03-16T14:46:54.311Z,100551.94
2019-03-16T14:49:21.461Z,100555.83
2019-03-16T14:51:48.589Z,100553.70
2019-03-16T14:54:15.667Z,100543.14
2019-03-16T14:56:42.757Z,100546.55
2019-03-16T14:59:09.822Z,100542.13
2019-03-16T15:01:37.126Z,100536.88
2019-03-16T15:04:04.195Z,100534.22
2019-03-16T15:06:31.274Z,100526.34
2019-03-16T15:08:58.595Z,100524.55
2019-03-16T15:11:25.635Z,100521.37
2019-03-16T15:13:52.775Z,100519.17
2019-03-16T15:16:19.838Z,100509.11
2019-03-16T15:18:46.937Z,100498.18
2019-03-16T15:21:14.081Z,100499.58
2019-03-16T15:23:41.143Z,100490.41
2019-03-16T15:26:08.214Z,100491.67
2019-03-16T15:28:35.348Z,100487.73
2019-03-16T15:31:02.471Z,100489.37
2019-03-16T15:33:29.587Z,100477.19
2019-03-16T15:35:56.729Z,100478.05
2019-03-16T15:38:23.847Z,100467.48
2019-03-16T15:40:50.936Z,100469.38
2019-03-16T15:43:18.041Z,100465.39
2019-03-16T15:45:45.281Z,100461.73
2019-03-16T15:48:12.421Z,100456.03
2019-03-16T15:50:39.491Z,100446.00
2019-03-16T15:53:06.616Z,100441.02
2019-03-16T15:55:33.687Z,100444.02
2019-03-16T15:58:08.004Z,100442.64
2019-03-16T16:00:47.944Z,100437.03
2019-03-16T16:03:15.038Z,100437.89
2019-03-16T16:05:42.088Z,100430.48
2019-03-16T16:08:09.166Z,100431.39
2019-03-16T16:10:36.311Z,100434.53
2019-03-16T16:13:03.418Z,100418.77
2019-03-16T16:15:30.476Z,100423.56
2019-03-16T16:17:57.566Z,100416.13
2019-03-16T16:20:24.631Z,100423.91
2019-03-16T16:22:51.729Z,100415.15
2019-03-16T16:25:18.847Z,100420.88
2019-03-16T16:27:46.013Z,100410.33
2019-03-16T16:30:13.171Z,100412.95
2019-03-16T16:32:55.351Z,100410.70
2019-03-16T16:35:22.403Z,100406.24
2019-03-16T16:37:49.450Z,100408.38
2019-03-16T16:40:16.587Z,100396.22
2019-03-16T16:42:43.679Z,100400.19
2019-03-16T16:45:10.884Z,100408.09
2019-03-16T16:47:38.436Z,100384.41
2019-03-16T16:50:07.376Z,100398.08
2019-03-16T16:52:34.458Z,100387.84
2019-03-16T16:55:01.505Z,100398.36
2019-03-16T16:57:28.600Z,100397.40
2019-03-16T16:59:58.357Z,100389.66
2019-03-16T17:02:24.587Z,100393.19
2019-03-16T17:04:51.899Z,100386.96
2019-03-16T17:07:18.973Z,100386.08
2019-03-16T17:09:46.088Z,100380.77
2019-03-16T17:12:13.212Z,100381.28
2019-03-16T17:14:40.298Z,100371.64
2019-03-16T17:17:07.335Z,100377.42
2019-03-16T17:19:34.411Z,100377.70
2019-03-16T17:22:01.473Z,100368.42
2019-03-16T17:24:28.743Z,100365.77
2019-03-16T17:26:55.826Z,100368.97
2019-03-16T17:29:22.898Z,100357.87
2019-03-16T17:31:50.154Z,100357.83
2019-03-16T17:34:17.223Z,100360.89
2019-03-16T17:36:44.276Z,100350.72
2019-03-16T17:39:11.379Z,100358.19
2019-03-16T17:41:38.465Z,100352.45
2019-03-16T17:44:05.529Z,100346.28
2019-03-16T17:46:32.612Z,100350.58
2019-03-16T17:49:01.457Z,100342.56
2019-03-16T17:51:28.530Z,100342.97
2019-03-16T17:53:55.598Z,100344.82
2019-03-16T17:56:22.683Z,100339.95
2019-03-16T17:58:49.750Z,100346.05
2019-03-16T18:01:16.948Z,100325.86
2019-03-16T18:03:44.026Z,100324.58
2019-03-16T18:06:11.141Z,100335.05
2019-03-16T18:08:38.212Z,100321.87
2019-03-16T18:11:05.510Z,100321.81
2019-03-16T18:13:32.632Z,100317.52
2019-03-16T18:15:59.705Z,100324.95
2019-03-16T18:18:26.786Z,100310.74
2019-03-16T18:20:54.321Z,100319.48
2019-03-16T18:23:21.372Z,100323.06
2019-03-16T18:25:48.440Z,100328.69
2019-03-16T18:28:15.581Z,100324.70
2019-03-16T18:30:42.726Z,100331.73
2019-03-16T18:33:09.794Z,100331.70
2019-03-16T18:35:36.924Z,100332.59
2019-03-16T18:38:03.994Z,100329.98
2019-03-16T18:40:31.072Z,100325.59
2019-03-16T18:42:58.200Z,100320.73
2019-03-16T18:45:25.290Z,100320.28
2019-03-16T18:47:52.355Z,100318.66
2019-03-16T18:50:19.496Z,100313.78
2019-03-16T18:52:46.595Z,100308.00
2019-03-16T18:55:13.667Z,100304.55
2019-03-16T18:57:43.029Z,100299.77
2019-03-16T19:00:11.010Z,100296.78
2019-03-16T19:02:38.079Z,100294.19
2019-03-16T19:05:05.760Z,100286.75
2019-03-16T19:07:32.867Z,100290.28
2019-03-16T19:09:59.982Z,100281.88
2019-03-16T19:12:27.055Z,100280.98
2019-03-16T19:14:54.254Z,100271.34
2019-03-16T19:17:21.323Z,100264.36
2019-03-16T19:19:48.482Z,100264.77
2019-03-16T19:22:15.653Z,100261.38
2019-03-16T19:24:42.752Z,100252.61
2019-03-16T19:27:09.828Z,100253.92
2019-03-16T19:29:36.977Z,100250.46
2019-03-16T19:32:04.069Z,100250.95
2019-03-16T19:34:31.167Z,100249.67
2019-03-16T19:36:58.283Z,100242.62
2019-03-16T19:39:25.401Z,100225.03
2019-03-16T19:41:52.597Z,100232.48
2019-03-16T19:44:19.763Z,100234.25
2019-03-16T19:46:46.841Z,100225.08
2019-03-16T19:49:14.030Z,100226.35
2019-03-16T19:51:41.216Z,100209.71
2019-03-16T19:54:08.472Z,100207.58
2019-03-16T19:56:35.562Z,100204.98
2019-03-16T19:59:02.805Z,100203.66
2019-03-16T20:01:29.898Z,100192.25
2019-03-16T20:03:57.020Z,100193.17
2019-03-16T20:06:25.905Z,100186.98
2019-03-16T20:08:53.175Z,100184.36
2019-03-16T20:11:20.386Z,100161.56
2019-03-16T20:13:47.495Z,100179.58
2019-03-16T20:16:14.623Z,100167.30
2019-03-16T20:18:41.956Z,100175.13
2019-03-16T20:21:09.011Z,100172.11
2019-03-16T20:23:36.134Z,100156.33
2019-03-16T20:26:03.206Z,100147.99
2019-03-16T20:28:30.398Z,100159.41
2019-03-16T20:30:57.498Z,100159.37
2019-03-16T20:33:24.587Z,100153.27
2019-03-16T20:35:51.824Z,100152.33
2019-03-16T20:38:18.954Z,100161.16
2019-03-16T20:40:46.044Z,100154.05
2019-03-16T20:43:13.126Z,100153.16
2019-03-16T20:45:43.248Z,100145.70
2019-03-16T20:48:10.289Z,100143.98
2019-03-16T20:50:37.551Z,100129.97
2019-03-16T20:53:04.887Z,100131.23
2019-03-16T20:55:34.295Z,100139.11
2019-03-16T20:58:00.978Z,100141.77
2019-03-16T21:00:28.122Z,100129.02
2019-03-16T21:02:55.220Z,100125.93
2019-03-16T21:05:22.277Z,100128.14
2019-03-16T21:07:49.393Z,100116.20
2019-03-16T21:10:16.524Z,100117.94
2019-03-16T21:12:43.595Z,100122.31
2019-03-16T21:15:10.762Z,100121.02
2019-03-16T21:17:37.977Z,100114.80
2019-03-16T21:20:06.275Z,100110.47
2019-03-16T21:22:38.582Z,100115.31
2019-03-16T21:25:02.543Z,100108.76
2019-03-16T21:27:29.632Z,100098.65
2019-03-16T21:29:57.797Z,100108.34
2019-03-16T21:32:24.871Z,100110.05
2019-03-16T21:34:51.964Z,100105.70
2019-03-16T21:37:19.091Z,100110.55
2019-03-16T21:39:46.502Z,100103.51
2019-03-16T21:42:13.608Z,100103.97
2019-03-16T21:44:40.795Z,100100.44
2019-03-16T21:47:08.142Z,100113.19
2019-03-16T21:49:35.224Z,100104.38
2019-03-16T21:52:02.979Z,100084.73
2019-03-16T21:54:30.187Z,100085.59
2019-03-16T21:56:57.252Z,100085.23
2019-03-16T21:59:26.399Z,100075.94
2019-03-16T22:01:53.398Z,100077.28
2019-03-16T22:04:20.717Z,100071.12
2019-03-16T22:06:47.870Z,100070.67
2019-03-16T22:09:15.007Z,100064.09
2019-03-16T22:11:42.149Z,100061.93
2019-03-16T22:14:09.214Z,100066.28
2019-03-16T22:16:36.358Z,100062.80
2019-03-16T22:19:03.473Z,100054.42
2019-03-16T22:21:30.594Z,100045.20
2019-03-16T22:23:57.732Z,100052.62
2019-03-16T22:26:24.828Z,100052.16
2019-03-16T22:28:51.894Z,100035.97
2019-03-16T22:31:19.013Z,100043.87
2019-03-16T22:33:54.387Z,100041.67
2019-03-16T22:36:15.049Z,100029.84
2019-03-16T22:38:42.121Z,100033.33
2019-03-16T22:41:09.343Z,100025.01
2019-03-16T22:43:36.416Z,100027.23
2019-03-16T22:46:03.524Z,100020.69
2019-03-16T22:48:30.645Z,100022.02
2019-03-16T22:50:57.843Z,100022.91
2019-03-16T22:53:24.910Z,100023.30
2019-03-16T22:55:52.038Z,100017.61
2019-03-16T22:58:19.451Z,100021.12
2019-03-16T23:00:48.653Z,100007.18
2019-03-16T23:03:16.157Z,100022.98
2019-03-16T23:05:43.281Z,100006.33
2019-03-16T23:08:10.450Z,100005.42
2019-03-16T23:10:37.547Z,100015.05
2019-03-16T23:13:04.656Z,100006.29
2019-03-16T23:15:31.776Z,99997.91
2019-03-16T23:18:00.390Z,100001.88
2019-03-16T23:20:27.466Z,99991.35
2019-03-16T23:22:54.604Z,99996.61
2019-03-16T23:25:21.922Z,99994.89
2019-03-16T23:27:49.006Z,99987.87
2019-03-16T23:30:16.086Z,99975.59
2019-03-16T23:32:43.198Z,99986.57
2019-03-16T23:35:10.300Z,99974.72
2019-03-16T23:37:37.423Z,99976.51
2019-03-16T23:40:04.709Z,99976.55
2019-03-16T23:42:31.844Z,99971.69
2019-03-16T23:44:59.160Z,99955.86
2019-03-16T23:47:26.284Z,99960.70
2019-03-16T23:49:53.386Z,99966.00
2019-03-16T23:52:20.503Z,99954.61
2019-03-16T23:54:47.600Z,99944.47
2019-03-16T23:57:14.753Z,99942.23
2019-03-16T23:59:41.979Z,99938.28
